Time;durP1;ratioP1;P1;durP2;ratioP2;P2;SDS_P1;SDS_P2;PMS_P1;PMS_P2;Temp;Humidity;BMP_temperature;BMP_pressure;BME280_temperature;BME280_humidity;BME280_pressure;Samples;Min_cycle;Max_cycle;Signal;HPM_P1;HPM_P2
2021/12/14 00:01:34;;;;;;;;;;;7.70;93.70;;;;;;4972543;28;19949;-77
2021/12/14 00:04:05;;;;;;;;;;;7.70;93.70;;;;;;4970539;28;19937;-78
2021/12/14 00:06:33;;;;;;;;;;;7.70;93.70;;;;;;4971590;28;19935;-79
2021/12/14 00:09:02;;;;;;;;;;;7.70;93.60;;;;;;4975010;28;19927;-78
2021/12/14 00:17:01;;;;;;;;;;;7.70;93.70;;;;;;4874189;29;19963;-79
2021/12/14 00:19:28;;;;;;;;;;;7.70;93.70;;;;;;4874359;29;20420;-78
2021/12/14 00:22:03;;;;;;;;;;;7.70;93.70;;;;;;4875379;29;19931;-78
2021/12/14 00:24:30;;;;;;;;;;;7.70;93.70;;;;;;4874526;29;19935;-77
2021/12/14 00:27:00;;;;;;;;;;;7.70;93.70;;;;;;4874964;29;19944;-78
2021/12/14 00:29:29;;;;;;;;;;;7.70;93.70;;;;;;4875019;29;19935;-79
2021/12/14 00:31:58;;;;;;;;;;;7.70;93.70;;;;;;4872988;29;19928;-77
2021/12/14 00:34:39;;;;;;;;;;;7.80;93.70;;;;;;4860301;29;19932;-77
2021/12/14 00:37:27;;;;;;;;;;;7.70;93.70;;;;;;4874330;29;19927;-78
2021/12/14 00:39:55;;;;;;;;;;;7.70;93.70;;;;;;4878243;29;19932;-78
2021/12/14 00:42:23;;;;;;;;;;;7.70;93.70;;;;;;4878564;29;19932;-78
2021/12/14 00:44:50;;;;;;;;;;;7.70;93.70;;;;;;4878299;29;19951;-78
2021/12/14 00:47:18;;;;;;;;;;;7.70;93.70;;;;;;4878708;29;19928;-78
2021/12/14 00:49:47;;;;;;;;;;;7.70;93.60;;;;;;4878282;29;20409;-78
2021/12/14 00:52:15;;;;;;;;;;;7.80;93.70;;;;;;4888194;28;20006;-78
2021/12/14 00:54:45;;;;;;;;;;;7.70;93.70;;;;;;4958921;28;20307;-78
2021/12/14 00:57:13;;;;;;;;;;;7.80;93.70;;;;;;4974441;28;19926;-78
2021/12/14 00:59:41;;;;;;;;;;;7.70;93.70;;;;;;4958999;28;19926;-79
2021/12/14 01:02:12;;;;;;;;;;;7.80;93.70;;;;;;4942227;28;19942;-78
2021/12/14 01:04:49;;;;;;;;;;;7.80;93.70;;;;;;4958046;28;19926;-78
2021/12/14 01:07:18;;;;;;;;;;;7.80;93.70;;;;;;4972957;28;19934;-78
2021/12/14 01:09:48;;;;;;;;;;;7.80;93.70;;;;;;4958397;28;19926;-78
2021/12/14 01:12:24;;;;;;;;;;;7.80;93.70;;;;;;4974838;28;19926;-79
2021/12/14 01:15:12;;;;;;;;;;;7.80;93.70;;;;;;4962953;28;19926;-79
2021/12/14 01:18:00;;;;;;;;;;;7.80;93.70;;;;;;4973293;28;19926;-79
2021/12/14 01:20:35;;;;;;;;;;;7.80;93.70;;;;;;4974351;28;19934;-80
2021/12/14 01:23:13;;;;;;;;;;;7.80;93.70;;;;;;4973784;28;19926;-79
2021/12/14 01:25:42;;;;;;;;;;;7.80;93.70;;;;;;4976696;28;19941;-79
2021/12/14 01:28:12;;;;;;;;;;;7.80;93.70;;;;;;4957121;28;20391;-79
2021/12/14 01:31:01;;;;;;;;;;;7.80;93.70;;;;;;4957233;28;19926;-77
2021/12/14 01:33:28;;;;;;;;;;;7.80;93.70;;;;;;4974189;28;19926;-78
2021/12/14 01:35:57;;;;;;;;;;;7.80;93.70;;;;;;4954628;28;19930;-78
2021/12/14 01:40:57;;;;;;;;;;;7.80;93.70;;;;;;4975652;28;19926;-79
2021/12/14 01:43:35;;;;;;;;;;;7.80;93.70;;;;;;4959652;28;19933;-80
2021/12/14 01:46:18;;;;;;;;;;;7.80;93.70;;;;;;4983252;28;20315;-79
2021/12/14 01:48:47;;;;;;;;;;;7.80;93.70;;;;;;4954777;28;20307;-79
2021/12/14 01:51:45;;;;;;;;;;;7.80;93.70;;;;;;4972655;28;19926;-80
2021/12/14 01:54:20;;;;;;;;;;;7.80;93.70;;;;;;4957858;28;19933;-79
2021/12/14 01:56:48;;;;;;;;;;;7.80;93.70;;;;;;4957908;28;19933;-79
2021/12/14 01:59:22;;;;;;;;;;;7.80;93.70;;;;;;4957368;28;19926;-78
2021/12/14 02:02:08;;;;;;;;;;;7.80;93.70;;;;;;4958719;28;19929;-78
2021/12/14 02:04:41;;;;;;;;;;;7.80;93.70;;;;;;4974408;28;20335;-78
2021/12/14 02:07:09;;;;;;;;;;;7.80;93.70;;;;;;4973610;28;19933;-78
2021/12/14 02:09:39;;;;;;;;;;;7.80;93.70;;;;;;4989202;28;19933;-79
2021/12/14 02:12:08;;;;;;;;;;;7.80;93.70;;;;;;4988850;28;19937;-78
2021/12/14 02:14:37;;;;;;;;;;;7.80;93.70;;;;;;4956733;28;19937;-78
2021/12/14 02:17:05;;;;;;;;;;;7.80;93.70;;;;;;4958017;28;19941;-78
2021/12/14 02:19:34;;;;;;;;;;;7.80;93.70;;;;;;4942678;28;19926;-78
2021/12/14 02:22:02;;;;;;;;;;;7.80;93.70;;;;;;4974015;28;19941;-78
2021/12/14 02:24:30;;;;;;;;;;;7.80;93.70;;;;;;4990180;28;19925;-78
2021/12/14 02:26:59;;;;;;;;;;;7.70;93.70;;;;;;4968271;28;19926;-79
2021/12/14 02:29:54;;;;;;;;;;;7.80;93.80;;;;;;4941952;28;19930;-79
2021/12/14 02:32:25;;;;;;;;;;;7.80;93.80;;;;;;4976251;28;19934;-79
2021/12/14 02:34:54;;;;;;;;;;;7.80;93.80;;;;;;4956940;28;19926;-78
2021/12/14 02:37:35;;;;;;;;;;;7.70;93.80;;;;;;4972162;28;19926;-78
2021/12/14 02:40:14;;;;;;;;;;;7.70;93.80;;;;;;4975771;28;19933;-78
2021/12/14 02:42:41;;;;;;;;;;;7.70;93.80;;;;;;4975294;28;19926;-78
2021/12/14 02:45:09;;;;;;;;;;;7.70;93.80;;;;;;4975848;28;19925;-78
2021/12/14 02:47:37;;;;;;;;;;;7.70;93.80;;;;;;4975923;28;19926;-79
2021/12/14 02:50:05;;;;;;;;;;;7.70;93.90;;;;;;4975558;28;19926;-79
2021/12/14 02:52:36;;;;;;;;;;;7.60;93.90;;;;;;4969134;28;19926;-79
2021/12/14 02:55:15;;;;;;;;;;;7.60;93.90;;;;;;4975327;28;20407;-79
2021/12/14 02:57:44;;;;;;;;;;;7.60;93.90;;;;;;4957459;28;20411;-79
2021/12/14 03:00:17;;;;;;;;;;;7.50;94.00;;;;;;4974841;28;19926;-79
2021/12/14 03:02:45;;;;;;;;;;;7.60;94.00;;;;;;4957879;28;20308;-79
2021/12/14 03:05:18;;;;;;;;;;;7.50;94.00;;;;;;4957908;28;19926;-79
2021/12/14 03:07:48;;;;;;;;;;;7.50;94.00;;;;;;4957861;28;19926;-79
2021/12/14 03:12:47;;;;;;;;;;;7.50;94.00;;;;;;4958194;28;19926;-79
2021/12/14 03:15:24;;;;;;;;;;;7.50;94.10;;;;;;4975191;28;19941;-79
2021/12/14 03:17:54;;;;;;;;;;;7.50;94.10;;;;;;4974410;28;19927;-79
2021/12/14 03:20:24;;;;;;;;;;;7.50;94.10;;;;;;4957757;28;19934;-79
2021/12/14 03:22:58;;;;;;;;;;;7.50;94.10;;;;;;4957772;28;19933;-79
2021/12/14 03:25:26;;;;;;;;;;;7.50;94.10;;;;;;4959527;28;19926;-79
2021/12/14 03:27:54;;;;;;;;;;;7.50;94.10;;;;;;4941187;28;19926;-79
2021/12/14 03:30:27;;;;;;;;;;;7.50;94.10;;;;;;4957917;28;19942;-79
2021/12/14 03:33:01;;;;;;;;;;;7.50;94.10;;;;;;4957085;28;19926;-79
2021/12/14 03:35:39;;;;;;;;;;;7.50;94.10;;;;;;4957967;28;19926;-79
2021/12/14 03:38:13;;;;;;;;;;;7.40;94.10;;;;;;4956498;28;19926;-79
2021/12/14 03:40:40;;;;;;;;;;;7.40;94.10;;;;;;4974319;28;19937;-79
2021/12/14 03:43:13;;;;;;;;;;;7.40;94.10;;;;;;4957144;28;20295;-78
2021/12/14 03:45:43;;;;;;;;;;;7.40;94.20;;;;;;4957006;28;19933;-79
2021/12/14 03:48:12;;;;;;;;;;;7.30;94.20;;;;;;4956506;28;19926;-79
2021/12/14 03:50:41;;;;;;;;;;;7.30;94.20;;;;;;4957195;28;19930;-79
2021/12/14 03:53:10;;;;;;;;;;;7.30;94.20;;;;;;4956597;28;19926;-78
2021/12/14 03:55:42;;;;;;;;;;;7.40;94.30;;;;;;4956637;28;20307;-79
2021/12/14 03:58:16;;;;;;;;;;;7.40;94.30;;;;;;4957097;28;19926;-78
2021/12/14 04:00:49;;;;;;;;;;;7.30;94.20;;;;;;4957226;28;19949;-78
2021/12/14 04:03:17;;;;;;;;;;;7.30;94.30;;;;;;4974370;28;19926;-78
2021/12/14 04:05:57;;;;;;;;;;;7.30;94.30;;;;;;4957076;28;19926;-78
2021/12/14 04:08:25;;;;;;;;;;;7.30;94.30;;;;;;4974245;28;19941;-78
2021/12/14 04:10:54;;;;;;;;;;;7.30;94.30;;;;;;4956564;28;20372;-78
2021/12/14 04:13:25;;;;;;;;;;;7.30;94.30;;;;;;4956591;28;19926;-78
2021/12/14 04:15:55;;;;;;;;;;;7.20;94.40;;;;;;4956253;28;20531;-79
2021/12/14 04:18:25;;;;;;;;;;;7.20;94.40;;;;;;4957221;28;19926;-78
2021/12/14 04:20:55;;;;;;;;;;;7.20;94.40;;;;;;4956738;28;19926;-78
2021/12/14 04:23:26;;;;;;;;;;;7.20;94.40;;;;;;4956688;28;19941;-79
2021/12/14 04:25:55;;;;;;;;;;;7.10;94.40;;;;;;4956525;28;19959;-79
2021/12/14 04:28:25;;;;;;;;;;;7.10;94.40;;;;;;4988786;28;20298;-79
2021/12/14 04:30:55;;;;;;;;;;;7.10;94.50;;;;;;4957028;28;20376;-79
2021/12/14 04:33:34;;;;;;;;;;;7.10;94.50;;;;;;4956062;28;19933;-79
2021/12/14 04:36:06;;;;;;;;;;;7.10;94.50;;;;;;4972305;28;19933;-79
2021/12/14 04:38:43;;;;;;;;;;;7.10;94.50;;;;;;4989256;28;19926;-78
2021/12/14 04:52:12;;;;;;;;;;;7.00;94.50;;;;;;4956867;28;19926;-79
2021/12/14 04:54:41;;;;;;;;;;;7.00;94.60;;;;;;4956348;28;19926;-79
2021/12/14 04:57:18;;;;;;;;;;;7.00;94.60;;;;;;4956110;28;19937;-79
2021/12/14 04:59:47;;;;;;;;;;;7.00;94.50;;;;;;4956588;28;19930;-79
2021/12/14 05:02:21;;;;;;;;;;;6.90;94.50;;;;;;4955822;28;19933;-77
2021/12/14 05:05:21;;;;;;;;;;;6.90;94.50;;;;;;4961227;28;19926;-77
2021/12/14 05:09:20;;;;;;;;;;;6.80;94.50;;;;;;4961757;28;20303;-77
2021/12/14 05:10:52;;;;;;;;;;;6.80;94.50;;;;;;4975273;28;19926;-77
2021/12/14 05:13:27;;;;;;;;;;;6.80;94.50;;;;;;4991943;28;19930;-88
2021/12/14 05:15:55;;;;;;;;;;;6.80;94.50;;;;;;4975430;28;19933;-78
2021/12/14 05:18:23;;;;;;;;;;;6.80;94.60;;;;;;4975654;28;19926;-79
2021/12/14 05:20:51;;;;;;;;;;;6.80;94.60;;;;;;4975207;28;19933;-79
2021/12/14 05:23:20;;;;;;;;;;;6.70;94.60;;;;;;4976278;28;20402;-79
2021/12/14 05:25:49;;;;;;;;;;;6.70;94.60;;;;;;4979065;28;19933;-79
2021/12/14 05:28:19;;;;;;;;;;;6.70;94.60;;;;;;4978321;28;19933;-78
2021/12/14 05:30:51;;;;;;;;;;;6.70;94.70;;;;;;4979260;28;20307;-78
2021/12/14 05:33:33;;;;;;;;;;;6.70;94.70;;;;;;4963105;28;20299;-78
2021/12/14 05:36:13;;;;;;;;;;;6.70;94.70;;;;;;4978234;28;19929;-78
2021/12/14 05:44:25;;;;;;;;;;;6.70;94.80;;;;;;4943624;28;20418;-79
2021/12/14 05:47:00;;;;;;;;;;;6.70;94.80;;;;;;4944422;28;20287;-79
2021/12/14 05:49:48;;;;;;;;;;;6.70;94.80;;;;;;4946391;28;19926;-79
2021/12/14 05:52:21;;;;;;;;;;;6.70;94.80;;;;;;4975198;28;20384;-79
2021/12/14 05:54:49;;;;;;;;;;;6.80;94.80;;;;;;4960714;28;19937;-80
2021/12/14 05:57:20;;;;;;;;;;;6.80;94.80;;;;;;4952665;28;20410;-80
2021/12/14 05:59:49;;;;;;;;;;;6.80;94.70;;;;;;4968724;28;19926;-79
2021/12/14 06:02:19;;;;;;;;;;;6.70;94.70;;;;;;4964288;28;20276;-80
2021/12/14 06:04:51;;;;;;;;;;;6.70;94.70;;;;;;4943336;28;19926;-79
2021/12/14 06:07:19;;;;;;;;;;;6.70;94.70;;;;;;4960243;28;19941;-79
2021/12/14 06:09:49;;;;;;;;;;;6.80;94.80;;;;;;4977118;28;20303;-80
2021/12/14 06:12:38;;;;;;;;;;;6.80;94.80;;;;;;4974640;28;20384;-79
2021/12/14 06:15:10;;;;;;;;;;;6.80;94.80;;;;;;4962949;28;20498;-80
2021/12/14 06:17:39;;;;;;;;;;;6.80;94.80;;;;;;4988948;28;19926;-79
2021/12/14 06:20:21;;;;;;;;;;;6.80;94.80;;;;;;4947750;28;19956;-78
2021/12/14 06:22:52;;;;;;;;;;;6.80;94.80;;;;;;4962161;28;20396;-79
2021/12/14 06:25:37;;;;;;;;;;;6.80;94.80;;;;;;4977807;28;19926;-79
2021/12/14 06:28:05;;;;;;;;;;;6.80;94.80;;;;;;4975004;28;19933;-79
2021/12/14 06:30:34;;;;;;;;;;;6.90;94.80;;;;;;4973770;28;19926;-80
2021/12/14 06:33:07;;;;;;;;;;;6.90;94.80;;;;;;4958078;28;19926;-78
2021/12/14 06:35:37;;;;;;;;;;;6.90;94.80;;;;;;4974195;28;19926;-79
2021/12/14 06:38:21;;;;;;;;;;;6.90;94.80;;;;;;4958601;28;19933;-79
2021/12/14 06:41:00;;;;;;;;;;;7.00;94.80;;;;;;4958241;28;20046;-79
2021/12/14 06:43:31;;;;;;;;;;;7.00;94.80;;;;;;4976049;28;19933;-79
2021/12/14 06:46:01;;;;;;;;;;;7.00;94.80;;;;;;4960000;28;19937;-79
2021/12/14 06:48:40;;;;;;;;;;;7.10;94.80;;;;;;4958698;28;19932;-79
2021/12/14 06:51:09;;;;;;;;;;;7.10;94.80;;;;;;4960626;28;20388;-79
2021/12/14 06:54:01;;;;;;;;;;;7.10;94.80;;;;;;4972187;28;19934;-78
2021/12/14 06:56:49;;;;;;;;;;;7.10;94.80;;;;;;4978347;28;19937;-79
2021/12/14 06:59:32;;;;;;;;;;;7.20;94.80;;;;;;4982118;28;19937;-79
2021/12/14 07:02:09;;;;;;;;;;;7.20;94.80;;;;;;4980105;28;20418;-79
2021/12/14 07:04:49;;;;;;;;;;;7.30;94.80;;;;;;4958340;28;19934;-78
2021/12/14 07:07:24;;;;;;;;;;;7.20;94.80;;;;;;4959792;28;19934;-78
2021/12/14 07:09:54;;;;;;;;;;;7.30;94.80;;;;;;4982175;28;20504;-79
2021/12/14 07:12:24;;;;;;;;;;;7.30;94.80;;;;;;4981719;28;19926;-78
2021/12/14 07:14:53;;;;;;;;;;;7.30;94.80;;;;;;4979733;28;19926;-79
2021/12/14 07:17:28;;;;;;;;;;;7.30;94.70;;;;;;4983401;28;19937;-79
2021/12/14 07:20:07;;;;;;;;;;;7.30;94.70;;;;;;4981933;28;19926;-79
2021/12/14 07:22:41;;;;;;;;;;;7.30;94.70;;;;;;4964335;28;19926;-78
2021/12/14 07:25:12;;;;;;;;;;;7.30;94.70;;;;;;4977388;28;19926;-79
2021/12/14 07:27:39;;;;;;;;;;;7.40;94.70;;;;;;4985512;28;19926;-78
2021/12/14 07:30:18;;;;;;;;;;;7.40;94.70;;;;;;4978004;28;19926;-78
2021/12/14 07:32:45;;;;;;;;;;;7.40;94.70;;;;;;4982665;28;20284;-79
2021/12/14 07:35:18;;;;;;;;;;;7.40;94.70;;;;;;4974725;28;19957;-79
2021/12/14 07:37:46;;;;;;;;;;;7.40;94.70;;;;;;4975533;28;20387;-78
2021/12/14 07:40:14;;;;;;;;;;;7.50;94.70;;;;;;4954106;28;19933;-80
2021/12/14 07:42:41;;;;;;;;;;;7.50;94.70;;;;;;4972793;28;19941;-79
2021/12/14 07:45:10;;;;;;;;;;;7.50;94.70;;;;;;4976434;28;20343;-79
2021/12/14 07:47:48;;;;;;;;;;;7.50;94.70;;;;;;4955559;28;19926;-79
2021/12/14 07:50:16;;;;;;;;;;;7.50;94.70;;;;;;4955521;28;19933;-80
2021/12/14 07:52:43;;;;;;;;;;;7.50;94.70;;;;;;4973912;28;19926;-80
2021/12/14 07:55:14;;;;;;;;;;;7.60;94.70;;;;;;4974403;28;19926;-80
2021/12/14 07:57:44;;;;;;;;;;;7.50;94.70;;;;;;4974688;28;19926;-80
2021/12/14 08:00:14;;;;;;;;;;;7.50;94.70;;;;;;4983330;28;19926;-80
2021/12/14 08:02:47;;;;;;;;;;;7.50;94.60;;;;;;4974153;28;19933;-78
2021/12/14 08:05:24;;;;;;;;;;;7.50;94.60;;;;;;4992572;28;19926;-78
2021/12/14 08:07:54;;;;;;;;;;;7.60;94.70;;;;;;4993523;28;20387;-78
2021/12/14 08:10:24;;;;;;;;;;;7.50;94.70;;;;;;4976469;28;20303;-78
2021/12/14 08:12:53;;;;;;;;;;;7.50;94.70;;;;;;4983133;28;19933;-78
2021/12/14 08:15:26;;;;;;;;;;;7.50;94.70;;;;;;4959962;28;20405;-79
2021/12/14 08:18:05;;;;;;;;;;;7.50;94.60;;;;;;4979673;28;19945;-79
2021/12/14 08:20:34;;;;;;;;;;;7.50;94.60;;;;;;4973529;28;19926;-78
2021/12/14 08:23:13;;;;;;;;;;;7.50;94.60;;;;;;4972351;28;19930;-79
2021/12/14 08:25:41;;;;;;;;;;;7.40;94.50;;;;;;4972753;28;19937;-79
2021/12/14 08:28:09;;;;;;;;;;;7.30;94.40;;;;;;4974313;28;20308;-79
2021/12/14 08:30:38;;;;;;;;;;;7.30;94.40;;;;;;4956241;28;19926;-79
2021/12/14 08:33:16;;;;;;;;;;;7.20;94.40;;;;;;4971879;28;19930;-79
2021/12/14 08:35:43;;;;;;;;;;;7.20;94.40;;;;;;4971807;28;19933;-81
2021/12/14 08:38:13;;;;;;;;;;;7.10;94.60;;;;;;4972817;28;19953;-79
2021/12/14 08:40:45;;;;;;;;;;;7.10;94.70;;;;;;4972241;28;19942;-79
2021/12/14 08:43:22;;;;;;;;;;;7.10;94.80;;;;;;4971884;28;20281;-79
2021/12/14 08:46:00;;;;;;;;;;;7.00;94.80;;;;;;4972696;28;19926;-79
2021/12/14 08:48:31;;;;;;;;;;;7.00;94.80;;;;;;4973327;28;19926;-79
2021/12/14 08:51:01;;;;;;;;;;;7.00;94.80;;;;;;4972693;28;19930;-80
2021/12/14 08:53:34;;;;;;;;;;;7.00;94.80;;;;;;4970352;28;19948;-80
2021/12/14 08:56:04;;;;;;;;;;;7.00;94.90;;;;;;4954878;28;19926;-79
2021/12/14 08:58:32;;;;;;;;;;;7.00;94.90;;;;;;4973588;28;19926;-80
2021/12/14 09:01:03;;;;;;;;;;;7.10;95.00;;;;;;4958883;28;19934;-79
2021/12/14 09:03:33;;;;;;;;;;;7.10;95.10;;;;;;4958664;28;20422;-79
2021/12/14 09:06:04;;;;;;;;;;;7.20;95.10;;;;;;4959503;28;19934;-80
2021/12/14 09:08:32;;;;;;;;;;;7.30;95.20;;;;;;4975783;28;19926;-80
2021/12/14 09:11:01;;;;;;;;;;;7.40;95.20;;;;;;4975693;28;19926;-80
2021/12/14 09:13:29;;;;;;;;;;;7.50;95.10;;;;;;4975626;28;19933;-80
2021/12/14 09:16:05;;;;;;;;;;;7.50;95.00;;;;;;4972714;28;19930;-80
2021/12/14 09:18:36;;;;;;;;;;;7.50;94.90;;;;;;4975681;28;19933;-78
2021/12/14 09:21:08;;;;;;;;;;;7.50;94.80;;;;;;4958751;28;19938;-80
2021/12/14 09:23:38;;;;;;;;;;;7.50;94.80;;;;;;4956256;28;20398;-80
2021/12/14 09:26:07;;;;;;;;;;;7.50;94.80;;;;;;4958705;28;19926;-79
2021/12/14 09:28:35;;;;;;;;;;;7.60;94.90;;;;;;4972906;28;19933;-79
2021/12/14 09:31:05;;;;;;;;;;;7.60;95.00;;;;;;4975601;28;19927;-79
2021/12/14 09:33:35;;;;;;;;;;;7.70;95.00;;;;;;4958211;28;19926;-78
2021/12/14 09:36:11;;;;;;;;;;;7.80;95.10;;;;;;4975357;28;19926;-79
2021/12/14 09:38:40;;;;;;;;;;;7.90;95.10;;;;;;4973069;28;19927;-79
2021/12/14 09:41:09;;;;;;;;;;;8.00;95.00;;;;;;4975549;28;20007;-79
2021/12/14 09:43:38;;;;;;;;;;;8.10;95.00;;;;;;4972239;28;19930;-79
2021/12/14 09:46:06;;;;;;;;;;;8.20;95.00;;;;;;4975754;28;19926;-80
2021/12/14 09:48:36;;;;;;;;;;;8.30;94.90;;;;;;4975430;28;19933;-78
2021/12/14 09:51:08;;;;;;;;;;;8.30;94.80;;;;;;4976505;28;19926;-79
2021/12/14 09:53:37;;;;;;;;;;;8.40;94.80;;;;;;4976908;28;19952;-80
2021/12/14 09:56:04;;;;;;;;;;;8.40;94.70;;;;;;4976561;28;19930;-80
2021/12/14 09:58:34;;;;;;;;;;;8.50;94.70;;;;;;4976342;28;19926;-79
2021/12/14 10:01:07;;;;;;;;;;;8.50;94.70;;;;;;4976553;28;20387;-79
2021/12/14 10:03:35;;;;;;;;;;;8.60;94.70;;;;;;4976593;28;19926;-79
2021/12/14 10:06:06;;;;;;;;;;;8.70;94.70;;;;;;4949413;28;19941;-79
2021/12/14 10:08:35;;;;;;;;;;;8.80;94.70;;;;;;4979436;28;19926;-80
2021/12/14 10:11:11;;;;;;;;;;;9.00;94.60;;;;;;4975434;28;20388;-79
2021/12/14 10:13:42;;;;;;;;;;;9.10;94.60;;;;;;4976004;28;20308;-79
2021/12/14 10:16:10;;;;;;;;;;;9.20;94.50;;;;;;4975361;28;20303;-80
2021/12/14 10:18:40;;;;;;;;;;;9.30;94.40;;;;;;4976138;28;19992;-80
2021/12/14 10:21:17;;;;;;;;;;;9.30;94.20;;;;;;4976049;28;19933;-80
2021/12/14 10:23:45;;;;;;;;;;;9.30;94.10;;;;;;4976005;28;20016;-79
2021/12/14 10:26:15;;;;;;;;;;;9.30;94.00;;;;;;4976083;28;19926;-80
2021/12/14 10:28:45;;;;;;;;;;;9.30;94.00;;;;;;4975796;28;19926;-79
2021/12/14 10:31:47;;;;;;;;;;;9.30;93.90;;;;;;4975936;28;19927;-79
2021/12/14 10:34:23;;;;;;;;;;;9.30;93.90;;;;;;4954041;28;19926;-80
2021/12/14 10:37:04;;;;;;;;;;;9.30;94.00;;;;;;4976081;28;19926;-79
2021/12/14 10:44:50;;;;;;;;;;;9.40;94.00;;;;;;4975676;28;19937;-78
2021/12/14 10:47:20;;;;;;;;;;;9.40;93.80;;;;;;4975024;28;20388;-80
2021/12/14 10:49:49;;;;;;;;;;;9.40;93.80;;;;;;4975244;28;19929;-79
2021/12/14 10:52:19;;;;;;;;;;;9.40;93.80;;;;;;4975857;28;19933;-80
2021/12/14 10:54:49;;;;;;;;;;;9.50;93.80;;;;;;4958363;28;19927;-80
2021/12/14 10:57:20;;;;;;;;;;;9.40;93.80;;;;;;4974684;28;20307;-80
2021/12/14 10:59:50;;;;;;;;;;;9.40;93.80;;;;;;4975672;28;19930;-79
2021/12/14 11:02:22;;;;;;;;;;;9.40;93.80;;;;;;4958318;28;19934;-80
2021/12/14 11:04:54;;;;;;;;;;;9.50;93.90;;;;;;4975565;28;19930;-79
2021/12/14 11:07:37;;;;;;;;;;;9.40;93.90;;;;;;4958039;28;19953;-80
2021/12/14 11:10:11;;;;;;;;;;;9.50;93.90;;;;;;4974845;28;19933;-80
2021/12/14 11:12:41;;;;;;;;;;;9.50;94.00;;;;;;4975210;28;20303;-80
2021/12/14 11:15:11;;;;;;;;;;;9.60;94.10;;;;;;4974962;28;19933;-81
2021/12/14 11:20:28;;;;;;;;;;;9.80;94.10;;;;;;4974720;28;19926;-80
2021/12/14 11:22:59;;;;;;;;;;;9.90;94.10;;;;;;4975111;28;19927;-80
2021/12/14 11:25:40;;;;;;;;;;;10.00;94.00;;;;;;4957613;28;19933;-81
2021/12/14 11:28:10;;;;;;;;;;;10.20;94.00;;;;;;4973887;28;19926;-81
2021/12/14 11:30:41;;;;;;;;;;;10.40;93.90;;;;;;4974743;28;20380;-80
2021/12/14 11:33:12;;;;;;;;;;;10.60;93.60;;;;;;4974962;28;20323;-79
2021/12/14 11:35:43;;;;;;;;;;;10.80;93.30;;;;;;4974312;28;20376;-80
2021/12/14 11:38:29;;;;;;;;;;;11.00;93.20;;;;;;4974622;28;19933;-80
2021/12/14 11:41:03;;;;;;;;;;;11.20;93.20;;;;;;4974577;28;19926;-80
2021/12/14 11:43:31;;;;;;;;;;;11.40;93.10;;;;;;4974889;28;19926;-79
2021/12/14 11:46:06;;;;;;;;;;;11.80;92.50;;;;;;4973778;28;21303;-80
2021/12/14 11:48:35;;;;;;;;;;;12.20;91.20;;;;;;4975191;28;19926;-80
2021/12/14 11:51:04;;;;;;;;;;;12.40;89.50;;;;;;4988575;28;19926;-79
2021/12/14 11:53:32;;;;;;;;;;;12.40;89.00;;;;;;4974622;28;20299;-79
2021/12/14 11:55:59;;;;;;;;;;;12.40;88.30;;;;;;4973712;28;19926;-79
2021/12/14 11:58:33;;;;;;;;;;;12.30;88.30;;;;;;4974926;28;20328;-79
2021/12/14 12:01:10;;;;;;;;;;;12.20;88.30;;;;;;4974683;28;19926;-79
2021/12/14 12:03:41;;;;;;;;;;;12.10;88.30;;;;;;4974276;28;20277;-80
2021/12/14 12:06:32;;;;;;;;;;;12.00;88.60;;;;;;4957016;28;19926;-79
2021/12/14 12:09:29;;;;;;;;;;;11.90;88.70;;;;;;4973309;28;20257;-79
2021/12/14 12:11:56;;;;;;;;;;;11.90;88.90;;;;;;4955170;28;19933;-79
2021/12/14 12:14:28;;;;;;;;;;;11.90;88.80;;;;;;4959643;28;19926;-79
2021/12/14 12:17:08;;;;;;;;;;;11.90;88.80;;;;;;4975055;28;20038;-79
2021/12/14 12:19:36;;;;;;;;;;;12.00;89.00;;;;;;4956140;28;19941;-80
2021/12/14 12:22:07;;;;;;;;;;;12.00;89.10;;;;;;4974331;28;20287;-79
2021/12/14 12:24:40;;;;;;;;;;;12.00;89.10;;;;;;4974187;28;19926;-79
2021/12/14 12:27:19;;;;;;;;;;;12.10;89.30;;;;;;4974482;28;20406;-79
2021/12/14 12:30:02;;;;;;;;;;;12.10;89.40;;;;;;4956838;28;19926;-79
2021/12/14 12:32:29;;;;;;;;;;;12.00;89.50;;;;;;4973215;28;19926;-80
2021/12/14 12:34:56;;;;;;;;;;;12.00;89.50;;;;;;4977949;28;19927;-80
2021/12/14 12:37:39;;;;;;;;;;;12.00;89.60;;;;;;4977841;28;19926;-80
2021/12/14 12:40:12;;;;;;;;;;;12.00;89.70;;;;;;4960698;28;19933;-79
2021/12/14 12:42:41;;;;;;;;;;;11.90;89.90;;;;;;4960439;28;20280;-80
2021/12/14 12:45:26;;;;;;;;;;;11.90;90.10;;;;;;4977782;28;20403;-80
2021/12/14 12:47:53;;;;;;;;;;;12.00;90.10;;;;;;4977831;28;19937;-80
2021/12/14 12:50:24;;;;;;;;;;;12.00;90.20;;;;;;4960395;28;19934;-80
2021/12/14 12:52:51;;;;;;;;;;;11.90;90.20;;;;;;4977488;28;20303;-80
2021/12/14 12:55:29;;;;;;;;;;;11.90;90.30;;;;;;4977695;28;19926;-80
2021/12/14 12:58:11;;;;;;;;;;;11.90;90.30;;;;;;4977568;28;19933;-80
2021/12/14 13:00:43;;;;;;;;;;;11.90;90.40;;;;;;4976935;28;20408;-80
2021/12/14 13:03:36;;;;;;;;;;;11.80;90.50;;;;;;4977667;28;19926;-80
2021/12/14 13:06:06;;;;;;;;;;;11.80;90.50;;;;;;4977181;28;20302;-80
2021/12/14 13:08:41;;;;;;;;;;;11.80;90.60;;;;;;4977489;28;19930;-80
2021/12/14 13:11:23;;;;;;;;;;;11.90;90.50;;;;;;4992356;28;19926;-80
2021/12/14 13:13:59;;;;;;;;;;;11.80;90.50;;;;;;4976858;28;19933;-81
2021/12/14 13:16:28;;;;;;;;;;;11.90;90.50;;;;;;4976712;28;20406;-80
2021/12/14 13:19:03;;;;;;;;;;;11.90;90.60;;;;;;4977071;28;19933;-81
2021/12/14 13:21:30;;;;;;;;;;;11.90;90.60;;;;;;4976634;28;20384;-81
2021/12/14 13:24:10;;;;;;;;;;;11.90;90.50;;;;;;4977098;28;19933;-80
2021/12/14 13:26:40;;;;;;;;;;;11.90;90.50;;;;;;4976693;28;19925;-79
2021/12/14 13:29:15;;;;;;;;;;;12.00;90.60;;;;;;4977083;28;19937;-80
2021/12/14 13:31:45;;;;;;;;;;;12.00;90.50;;;;;;4959908;28;19926;-80
2021/12/14 13:34:32;;;;;;;;;;;12.00;90.40;;;;;;4978638;28;19926;-80
2021/12/14 13:37:01;;;;;;;;;;;12.00;90.40;;;;;;4984135;28;19933;-80
2021/12/14 13:39:28;;;;;;;;;;;12.00;90.50;;;;;;4977095;28;19926;-80
2021/12/14 13:41:58;;;;;;;;;;;12.00;90.60;;;;;;4977838;28;19926;-80
2021/12/14 13:44:27;;;;;;;;;;;12.00;90.50;;;;;;4977390;28;19934;-80
2021/12/14 13:46:55;;;;;;;;;;;12.00;90.30;;;;;;4959941;28;19926;-80
2021/12/14 13:49:23;;;;;;;;;;;11.90;90.40;;;;;;4977353;28;19927;-80
2021/12/14 13:51:51;;;;;;;;;;;11.90;90.50;;;;;;4976058;28;20324;-80
2021/12/14 13:54:18;;;;;;;;;;;11.90;90.70;;;;;;4976710;28;19926;-80
2021/12/14 13:56:48;;;;;;;;;;;11.90;90.60;;;;;;4959516;28;19942;-80
2021/12/14 13:59:16;;;;;;;;;;;12.00;90.50;;;;;;4976110;28;19926;-80
2021/12/14 14:01:51;;;;;;;;;;;11.90;90.40;;;;;;4976248;28;20264;-79
2021/12/14 14:04:21;;;;;;;;;;;11.90;90.50;;;;;;4976041;28;20245;-80
2021/12/14 14:06:48;;;;;;;;;;;11.90;90.60;;;;;;4975880;28;19930;-80
2021/12/14 14:09:25;;;;;;;;;;;11.90;90.70;;;;;;4976650;28;19933;-79
2021/12/14 14:11:55;;;;;;;;;;;11.90;90.90;;;;;;4976050;28;19934;-80
2021/12/14 14:14:27;;;;;;;;;;;11.90;90.60;;;;;;4975941;28;19926;-80
2021/12/14 14:17:05;;;;;;;;;;;11.90;90.60;;;;;;4991243;28;20292;-81
2021/12/14 14:19:38;;;;;;;;;;;11.90;90.50;;;;;;4976141;28;19933;-81
2021/12/14 14:22:13;;;;;;;;;;;11.80;90.50;;;;;;4976130;28;20407;-80
2021/12/14 14:24:43;;;;;;;;;;;11.80;90.50;;;;;;4976061;28;20296;-80
2021/12/14 14:27:29;;;;;;;;;;;11.80;90.40;;;;;;4958358;28;19934;-81
2021/12/14 14:29:57;;;;;;;;;;;11.80;90.40;;;;;;4975975;28;19926;-81
2021/12/14 14:32:30;;;;;;;;;;;11.80;90.50;;;;;;4975104;28;19930;-80
2021/12/14 14:34:59;;;;;;;;;;;11.80;90.50;;;;;;4973657;28;19934;-80
2021/12/14 14:37:31;;;;;;;;;;;11.80;90.50;;;;;;4958291;28;19933;-80
2021/12/14 14:40:10;;;;;;;;;;;11.80;90.50;;;;;;4975865;28;19926;-80
2021/12/14 14:42:39;;;;;;;;;;;11.70;90.60;;;;;;4974654;28;19926;-80
2021/12/14 14:45:11;;;;;;;;;;;11.70;90.60;;;;;;4975888;28;19933;-81
2021/12/14 14:47:40;;;;;;;;;;;11.70;90.60;;;;;;4959017;28;19933;-81
2021/12/14 14:50:11;;;;;;;;;;;11.70;90.50;;;;;;4975671;28;19930;-81
2021/12/14 14:52:40;;;;;;;;;;;11.70;90.40;;;;;;4975520;28;19927;-81
2021/12/14 14:55:07;;;;;;;;;;;11.70;90.40;;;;;;4975264;28;19952;-81
2021/12/14 14:57:36;;;;;;;;;;;11.70;90.50;;;;;;4974952;28;19937;-81
2021/12/14 15:00:07;;;;;;;;;;;11.60;90.60;;;;;;4975848;28;20385;-81
2021/12/14 15:02:34;;;;;;;;;;;11.60;90.60;;;;;;4974122;28;20277;-81
2021/12/14 15:05:06;;;;;;;;;;;11.60;90.60;;;;;;4975276;28;19926;-81
2021/12/14 15:07:46;;;;;;;;;;;11.70;90.70;;;;;;4958233;28;19926;-82
2021/12/14 15:10:15;;;;;;;;;;;11.70;90.60;;;;;;4974600;28;19933;-81
2021/12/14 15:12:42;;;;;;;;;;;11.60;90.60;;;;;;4974658;28;20299;-81
2021/12/14 15:15:17;;;;;;;;;;;11.70;90.70;;;;;;4961180;28;19934;-82
2021/12/14 15:17:46;;;;;;;;;;;11.70;90.80;;;;;;4992856;28;19930;-82
2021/12/14 15:20:31;;;;;;;;;;;11.70;90.70;;;;;;4958148;28;20316;-83
2021/12/14 15:23:03;;;;;;;;;;;11.70;90.40;;;;;;4974938;28;19930;-85
2021/12/14 15:25:32;;;;;;;;;;;11.70;90.40;;;;;;4973796;28;20054;-80
2021/12/14 15:28:01;;;;;;;;;;;11.70;90.30;;;;;;4973658;28;19933;-80
2021/12/14 15:30:39;;;;;;;;;;;11.70;90.30;;;;;;4972692;28;20295;-80
2021/12/14 15:33:15;;;;;;;;;;;11.70;90.20;;;;;;4973301;28;20408;-80